Airport View

Enter AWOS ICAO identifier for current METAR.

ex. KFNL

KMTJ 080453Z AUTO 14009KT 10SM CLR 21/M02 A3020 RMK AO2 SLP133 T02111017

8 Aug 2020 05:38

Frequency: 135.225

Phone: 970-249-1534

Other Area AWOS: KAJZ - KTEX - KAIB - KGUC

TAF KMTJ 072333Z 0800/0824 25010G17KT P6SM SKC FM080200 19008KT P6SM SKC FM080400 14008KT P6SM SKC FM081500 VRB03KT P6SM SKC FM081700 33005KT P6SM FEW150 FEW250 FM082000 30008KT P6SM FEW150 FEW250